createdAt,value
2018-09-04T07:18:46.692Z,16.48
2018-09-04T07:21:15.792Z,16.68
2018-09-04T07:23:45.076Z,16.95
2018-09-04T07:26:13.965Z,17.28
2018-09-04T07:28:42.657Z,17.67
2018-09-04T07:31:11.815Z,18.00
2018-09-04T07:33:40.315Z,18.38
2018-09-04T07:36:09.388Z,18.70
2018-09-04T07:38:37.942Z,19.13
2018-09-04T07:41:06.433Z,19.47
2018-09-04T07:43:34.914Z,19.93
2018-09-04T07:46:03.322Z,20.38
2018-09-04T07:48:31.854Z,20.75
2018-09-04T07:51:00.342Z,20.76
2018-09-04T07:53:29.919Z,20.89
2018-09-04T07:55:59.240Z,21.16
2018-09-04T07:58:27.744Z,21.33
2018-09-04T08:00:56.361Z,21.47
2018-09-04T08:03:24.868Z,21.52
2018-09-04T08:05:54.047Z,21.73
2018-09-04T08:08:22.699Z,21.86
2018-09-04T08:10:51.412Z,21.83
2018-09-04T08:13:19.826Z,21.87
2018-09-04T08:15:48.422Z,22.29
2018-09-04T08:18:16.916Z,22.73
2018-09-04T08:20:45.551Z,22.33
2018-09-04T08:23:14.047Z,22.62
2018-09-04T08:25:43.130Z,22.99
2018-09-04T08:28:12.270Z,23.08
2018-09-04T08:30:41.526Z,23.13
2018-09-04T08:33:10.782Z,23.35
2018-09-04T08:35:39.311Z,23.60
2018-09-04T08:38:07.750Z,23.96
2018-09-04T08:40:36.458Z,23.75
2018-09-04T08:43:04.986Z,24.06
2018-09-04T08:45:33.563Z,24.39
2018-09-04T08:48:03.165Z,24.97
2018-09-04T08:50:33.525Z,25.42
2018-09-04T08:53:02.488Z,25.74
2018-09-04T08:55:31.792Z,26.05
2018-09-04T08:58:00.368Z,26.37
2018-09-04T09:00:29.216Z,26.01
2018-09-04T09:02:58.461Z,25.86
2018-09-04T09:05:27.776Z,26.20
2018-09-04T09:07:56.285Z,26.75
2018-09-04T09:10:25.131Z,27.17
2018-09-04T09:12:53.770Z,26.98
2018-09-04T09:15:22.236Z,27.02
2018-09-04T09:17:50.808Z,26.69
2018-09-04T09:20:19.479Z,26.27
2018-09-04T09:22:48.127Z,26.45
2018-09-04T09:25:16.607Z,26.11
2018-09-04T09:27:45.275Z,25.79
2018-09-04T09:30:14.582Z,25.66
2018-09-04T09:32:43.446Z,25.48
2018-09-04T09:35:12.181Z,25.45
2018-09-04T09:37:40.807Z,25.50
2018-09-04T09:40:09.288Z,25.93
2018-09-04T09:42:38.424Z,25.88
2018-09-04T09:45:07.146Z,25.89
2018-09-04T09:47:39.888Z,26.15
2018-09-04T09:50:08.684Z,26.16
2018-09-04T09:52:37.354Z,26.08
2018-09-04T09:55:06.292Z,25.75
2018-09-04T09:57:34.996Z,25.62
2018-09-04T10:00:03.529Z,25.51
2018-09-04T10:02:37.851Z,25.17
2018-09-04T10:05:06.289Z,24.86
2018-09-04T10:07:35.342Z,25.29
2018-09-04T10:10:04.302Z,25.16
2018-09-04T10:12:32.840Z,25.04
2018-09-04T10:15:01.409Z,25.38
2018-09-04T10:17:30.298Z,25.55
2018-09-04T10:19:58.933Z,25.77
2018-09-04T10:22:27.852Z,25.78
2018-09-04T10:24:57.318Z,25.61
2018-09-04T10:27:26.150Z,25.39
2018-09-04T10:29:54.722Z,25.25
2018-09-04T10:32:23.593Z,25.18
2018-09-04T10:34:53.998Z,25.43
2018-09-04T10:37:22.726Z,25.29
2018-09-04T10:39:56.829Z,25.24
2018-09-04T10:42:32.208Z,25.26
2018-09-04T10:45:01.667Z,25.57
2018-09-04T10:47:31.249Z,25.86
2018-09-04T10:50:01.170Z,26.22
2018-09-04T10:52:30.455Z,26.28
2018-09-04T10:54:59.681Z,26.49
2018-09-04T10:57:32.778Z,26.85
2018-09-04T11:00:01.708Z,26.84
2018-09-04T11:02:30.880Z,26.90
2018-09-04T11:05:00.306Z,26.96
2018-09-04T11:07:28.828Z,26.76
2018-09-04T11:09:57.713Z,26.52
2018-09-04T11:12:26.057Z,26.70
2018-09-04T11:14:55.054Z,26.86
2018-09-04T11:17:24.304Z,26.99
2018-09-04T11:19:53.519Z,27.00
2018-09-04T11:22:22.763Z,26.92
2018-09-04T11:24:51.592Z,26.67
2018-09-04T11:27:20.210Z,26.34
2018-09-04T11:29:48.668Z,26.13
2018-09-04T11:32:17.208Z,25.86
2018-09-04T11:34:45.888Z,25.89
2018-09-04T11:37:14.561Z,26.05
2018-09-04T11:39:43.397Z,26.22
2018-09-04T11:42:13.625Z,26.38
2018-09-04T11:44:43.700Z,26.30
2018-09-04T11:47:12.737Z,26.26
2018-09-04T11:49:42.433Z,26.30
2018-09-04T11:52:11.142Z,26.34
2018-09-04T11:54:43.735Z,26.22
2018-09-04T11:57:13.232Z,26.08
2018-09-04T11:59:43.243Z,26.01
2018-09-04T12:02:29.297Z,25.96
2018-09-04T12:04:58.118Z,25.80
2018-09-04T12:07:26.894Z,25.82
2018-09-04T12:09:55.811Z,26.00
2018-09-04T12:12:30.897Z,26.11
2018-09-04T12:15:00.001Z,26.10
2018-09-04T12:17:29.164Z,26.07
2018-09-04T12:21:08.702Z,25.95
2018-09-04T12:23:37.816Z,26.01
2018-09-04T12:26:08.147Z,27.00
2018-09-04T12:28:37.495Z,27.83
2018-09-04T12:31:06.800Z,28.49
2018-09-04T12:33:35.378Z,28.25
2018-09-04T12:36:04.014Z,28.39
2018-09-04T12:38:37.170Z,28.10
2018-09-04T12:41:21.341Z,27.72
2018-09-04T12:43:49.891Z,27.14
2018-09-04T12:46:18.436Z,26.88
2018-09-04T12:48:49.600Z,26.95
2018-09-04T12:51:18.200Z,27.28
2018-09-04T12:53:46.797Z,27.57
2018-09-04T12:56:15.397Z,27.80
2018-09-04T12:58:44.247Z,29.08
2018-09-04T13:01:13.043Z,29.69
2018-09-04T13:03:41.499Z,29.49
2018-09-04T13:06:10.188Z,29.42
2018-09-04T13:08:38.893Z,30.14
2018-09-04T13:11:07.408Z,31.20
2018-09-04T13:13:35.952Z,31.86
2018-09-04T13:16:05.176Z,32.77
2018-09-04T13:18:33.762Z,32.98
2018-09-04T13:21:03.631Z,32.25
2018-09-04T13:23:34.015Z,32.42
2018-09-04T13:26:03.266Z,32.16
2018-09-04T13:28:32.560Z,32.28
2018-09-04T13:31:05.359Z,31.85
2018-09-04T13:33:33.857Z,30.92
2018-09-04T13:36:02.644Z,30.09
2018-09-04T13:38:31.168Z,29.70
2018-09-04T13:41:05.092Z,29.32
2018-09-04T13:43:33.674Z,29.17
2018-09-04T13:46:02.508Z,29.16
2018-09-04T13:48:33.209Z,29.19
2018-09-04T13:51:01.743Z,29.18
2018-09-04T13:53:31.430Z,29.23
2018-09-04T13:56:00.505Z,29.31
2018-09-04T13:58:29.728Z,29.32
2018-09-04T14:00:59.047Z,29.50
2018-09-04T14:03:28.251Z,29.68
2018-09-04T14:05:57.362Z,29.78
2018-09-04T14:08:26.873Z,29.91
2018-09-04T14:10:55.903Z,29.72
2018-09-04T14:13:25.122Z,30.31
2018-09-04T14:15:56.012Z,30.22
2018-09-04T14:18:24.449Z,30.18
2018-09-04T14:20:53.095Z,30.22
2018-09-04T14:23:22.261Z,30.04
2018-09-04T14:25:50.823Z,29.95
2018-09-04T14:28:40.975Z,29.91
2018-09-04T14:30:48.772Z,30.43
2018-09-04T14:33:18.002Z,31.03
2018-09-04T14:35:47.199Z,31.63
2018-09-04T14:38:15.757Z,32.10
2018-09-04T14:40:44.634Z,32.06
2018-09-04T14:43:13.836Z,31.93
2018-09-04T14:45:43.364Z,31.51
2018-09-04T14:48:11.932Z,31.78
2018-09-04T14:50:41.501Z,31.99
2018-09-04T14:53:10.844Z,32.05
2018-09-04T14:55:39.333Z,31.76
2018-09-04T14:58:07.868Z,31.35
2018-09-04T15:00:37.319Z,31.03
2018-09-04T15:03:05.824Z,30.69
2018-09-04T15:05:34.384Z,30.67
2018-09-04T15:08:05.192Z,30.74
2018-09-04T15:10:34.247Z,30.78
2018-09-04T15:13:03.104Z,30.72
2018-09-04T15:15:31.749Z,30.58
2018-09-04T15:18:00.228Z,30.08
2018-09-04T15:20:29.530Z,29.70
2018-09-04T15:22:58.213Z,29.54
2018-09-04T15:25:26.689Z,29.48
2018-09-04T15:27:55.293Z,29.16
2018-09-04T15:30:24.126Z,28.77
2018-09-04T15:32:52.573Z,28.62
2018-09-04T15:35:21.149Z,28.59
2018-09-04T15:37:50.335Z,28.52
2018-09-04T15:40:19.079Z,28.20
2018-09-04T15:42:47.648Z,27.94
2018-09-04T15:45:16.187Z,27.86
2018-09-04T15:47:44.817Z,27.67
2018-09-04T15:50:14.047Z,27.45
2018-09-04T15:52:42.502Z,27.31
2018-09-04T15:55:11.040Z,27.26
2018-09-04T15:57:39.827Z,27.10
2018-09-04T16:00:08.644Z,27.05
2018-09-04T16:02:37.143Z,27.01
2018-09-04T16:05:06.014Z,27.04
2018-09-04T16:07:35.220Z,26.46
2018-09-04T16:10:03.863Z,26.17
2018-09-04T16:12:32.241Z,25.98
2018-09-04T16:15:00.780Z,25.86
2018-09-04T16:17:29.312Z,25.95
2018-09-04T16:19:58.497Z,25.87
2018-09-04T16:22:27.189Z,25.85
2018-09-04T16:24:55.824Z,25.79
2018-09-04T16:27:24.465Z,25.71
2018-09-04T16:29:53.957Z,25.49
2018-09-04T16:32:23.052Z,25.44
2018-09-04T16:34:51.641Z,25.52
2018-09-04T16:37:20.188Z,25.61
2018-09-04T16:39:48.954Z,25.52
2018-09-04T16:42:18.226Z,25.39
2018-09-04T16:44:47.443Z,25.37
2018-09-04T16:47:16.597Z,25.39
2018-09-04T16:49:45.158Z,25.41
2018-09-04T16:52:14.981Z,25.35
2018-09-04T16:54:44.176Z,25.38
2018-09-04T16:57:13.477Z,25.38
2018-09-04T16:59:42.754Z,25.45
2018-09-04T17:02:11.946Z,25.34
2018-09-04T17:04:40.732Z,25.23
2018-09-04T17:07:10.236Z,25.38
2018-09-04T17:09:39.205Z,25.32
2018-09-04T17:12:07.850Z,25.25
2018-09-04T17:14:37.024Z,25.25
2018-09-04T17:17:06.322Z,25.21
2018-09-04T17:19:35.561Z,25.13
2018-09-04T17:22:04.781Z,25.11
2018-09-04T17:24:34.059Z,25.06
2018-09-04T17:27:02.585Z,24.89
2018-09-04T17:29:31.153Z,24.91
2018-09-04T17:31:59.720Z,24.87
2018-09-04T17:34:28.881Z,24.79
2018-09-04T17:36:57.373Z,24.65
2018-09-04T17:39:25.924Z,24.59
2018-09-04T17:41:55.328Z,24.49
2018-09-04T17:44:23.861Z,24.50
2018-09-04T17:46:53.775Z,24.49
2018-09-04T17:49:22.280Z,24.45
2018-09-04T17:51:51.546Z,24.41
2018-09-04T17:54:20.189Z,24.37
2018-09-04T17:56:48.844Z,24.30
2018-09-04T17:59:18.300Z,24.23
2018-09-04T18:01:48.257Z,24.19
2018-09-04T18:04:16.898Z,24.10
2018-09-04T18:06:45.871Z,24.08
2018-09-04T18:09:14.524Z,24.05
2018-09-04T18:11:43.314Z,23.98
2018-09-04T18:14:12.800Z,23.90
2018-09-04T18:16:41.314Z,23.85
2018-09-04T18:19:10.087Z,23.80
2018-09-04T18:21:39.331Z,23.74
2018-09-04T18:24:08.600Z,23.66
2018-09-04T18:26:37.159Z,23.60
2018-09-04T18:29:05.862Z,23.56
2018-09-04T18:31:35.357Z,23.53
2018-09-04T18:34:04.648Z,23.50
2018-09-04T18:36:33.186Z,23.45
2018-09-04T18:39:01.726Z,23.39
2018-09-04T18:41:30.260Z,23.29
2018-09-04T18:43:59.172Z,23.22
2018-09-04T18:46:27.694Z,23.12
2018-09-04T18:48:56.756Z,23.01
2018-09-04T18:51:26.860Z,22.97
2018-09-04T18:53:55.741Z,22.96
2018-09-04T18:56:24.367Z,22.94
2018-09-04T18:58:53.779Z,22.93
2018-09-04T19:01:22.264Z,22.90
2018-09-04T19:03:51.042Z,22.94
2018-09-04T19:06:20.797Z,22.94
2018-09-04T19:08:50.514Z,22.91
2018-09-04T19:11:19.736Z,22.87
2018-09-04T19:13:49.418Z,22.86
2018-09-04T19:16:22.302Z,22.75
2018-09-04T19:18:51.359Z,22.72
2018-09-04T19:21:20.163Z,22.69
2018-09-04T19:23:48.737Z,22.70
2018-09-04T19:26:17.339Z,22.62
2018-09-04T19:28:46.205Z,22.62
2018-09-04T19:31:17.297Z,22.62
2018-09-04T19:33:48.181Z,22.57
2018-09-04T19:36:19.652Z,22.47
2018-09-04T19:38:51.151Z,22.49
2018-09-04T19:41:23.876Z,22.44
2018-09-04T19:43:54.644Z,22.38
2018-09-04T19:46:27.614Z,22.26
2018-09-04T19:49:00.433Z,22.21
2018-09-04T19:51:29.945Z,22.13
2018-09-04T19:53:58.960Z,22.07
2018-09-04T19:56:28.212Z,22.05
2018-09-04T19:58:56.737Z,22.05
2018-09-04T20:01:25.641Z,22.03
2018-09-04T20:03:54.990Z,22.00
2018-09-04T20:06:23.547Z,21.92
2018-09-04T20:08:52.152Z,21.89
2018-09-04T20:11:21.679Z,21.80
2018-09-04T20:13:51.190Z,21.71
2018-09-04T20:16:19.974Z,21.65
2018-09-04T20:18:49.960Z,21.64
2018-09-04T20:21:18.486Z,21.68
2018-09-04T20:23:47.204Z,21.61
2018-09-04T20:26:16.022Z,21.50
2018-09-04T20:28:45.250Z,21.41
2018-09-04T20:31:14.470Z,21.38
2018-09-04T20:33:43.672Z,21.39
2018-09-04T20:36:12.305Z,21.40
2018-09-04T20:38:40.883Z,21.38
2018-09-04T20:41:10.364Z,21.37
2018-09-04T20:43:39.675Z,21.28
2018-09-04T20:46:08.232Z,21.29
2018-09-04T20:48:36.825Z,21.07
